sensor_id;sensor_type;location;lat;lon;timestamp;pressure;altitude;pressure_sealevel;temperature;humidity
40574;BME280;26283;49.020;8.644;2023-04-25T00:00:31;98658.25;;;15.29;56.97
40574;BME280;26283;49.020;8.644;2023-04-25T00:02:57;98670.19;;;15.28;56.95
40574;BME280;26283;49.020;8.644;2023-04-25T00:05:23;98661.22;;;15.27;56.93
40574;BME280;26283;49.020;8.644;2023-04-25T00:07:49;98665.81;;;15.27;56.93
40574;BME280;26283;49.020;8.644;2023-04-25T00:10:15;98661.47;;;15.26;56.99
40574;BME280;26283;49.020;8.644;2023-04-25T00:12:41;98661.47;;;15.26;56.97
40574;BME280;26283;49.020;8.644;2023-04-25T00:15:07;98663.62;;;15.24;56.94
40574;BME280;26283;49.020;8.644;2023-04-25T00:17:32;98664.44;;;15.24;56.98
40574;BME280;26283;49.020;8.644;2023-04-25T00:19:57;98669.06;;;15.24;56.95
40574;BME280;26283;49.020;8.644;2023-04-25T00:22:23;98670.13;;;15.23;56.99
40574;BME280;26283;49.020;8.644;2023-04-25T00:24:49;98667.69;;;15.21;56.99
40574;BME280;26283;49.020;8.644;2023-04-25T00:27:14;98668.78;;;15.20;57.05
40574;BME280;26283;49.020;8.644;2023-04-25T00:29:40;98666.87;;;15.21;57.04
40574;BME280;26283;49.020;8.644;2023-04-25T00:32:05;98667.94;;;15.20;56.97
40574;BME280;26283;49.020;8.644;2023-04-25T00:34:30;98662.78;;;15.18;56.94
40574;BME280;26283;49.020;8.644;2023-04-25T00:36:56;98665.50;;;15.18;57.03
40574;BME280;26283;49.020;8.644;2023-04-25T00:39:22;98657.63;;;15.17;57.08
40574;BME280;26283;49.020;8.644;2023-04-25T00:41:47;98668.47;;;15.17;57.02
40574;BME280;26283;49.020;8.644;2023-04-25T00:44:14;98661.41;;;15.16;57.09
40574;BME280;26283;49.020;8.644;2023-04-25T00:46:42;98663.34;;;15.15;57.15
40574;BME280;26283;49.020;8.644;2023-04-25T00:49:07;98655.19;;;15.15;57.05
40574;BME280;26283;49.020;8.644;2023-04-25T00:51:33;98653.56;;;15.14;56.94
40574;BME280;26283;49.020;8.644;2023-04-25T00:53:59;98649.22;;;15.13;56.99
40574;BME280;26283;49.020;8.644;2023-04-25T00:56:25;98653.81;;;15.13;57.08
40574;BME280;26283;49.020;8.644;2023-04-25T00:58:53;98644.84;;;15.12;57.08
40574;BME280;26283;49.020;8.644;2023-04-25T01:01:19;98642.41;;;15.11;57.16
40574;BME280;26283;49.020;8.644;2023-04-25T01:03:46;98633.44;;;15.10;57.14
40574;BME280;26283;49.020;8.644;2023-04-25T01:06:11;98642.41;;;15.11;57.20
40574;BME280;26283;49.020;8.644;2023-04-25T01:08:38;98640.78;;;15.09;57.17
40574;BME280;26283;49.020;8.644;2023-04-25T01:11:05;98644.56;;;15.08;57.11
40574;BME280;26283;49.020;8.644;2023-04-25T01:13:30;98633.16;;;15.06;57.07
40574;BME280;26283;49.020;8.644;2023-04-25T01:15:58;98637.50;;;15.07;57.12
40574;BME280;26283;49.020;8.644;2023-04-25T01:18:23;98637.75;;;15.06;57.03
40574;BME280;26283;49.020;8.644;2023-04-25T01:20:51;98637.75;;;15.06;56.99
40574;BME280;26283;49.020;8.644;2023-04-25T01:23:16;98636.94;;;15.05;57.03
40574;BME280;26283;49.020;8.644;2023-04-25T01:25:42;98625.53;;;15.03;56.95
40574;BME280;26283;49.020;8.644;2023-04-25T01:28:08;98637.19;;;15.04;57.05
40574;BME280;26283;49.020;8.644;2023-04-25T01:30:34;98640.19;;;15.02;56.98
40574;BME280;26283;49.020;8.644;2023-04-25T01:33:00;98628.25;;;15.03;56.94
40574;BME280;26283;49.020;8.644;2023-04-25T01:35:26;98618.72;;;15.01;56.96
40574;BME280;26283;49.020;8.644;2023-04-25T01:37:51;98619.53;;;15.01;56.94
40574;BME280;26283;49.020;8.644;2023-04-25T01:40:17;98610.59;;;15.01;56.87
40574;BME280;26283;49.020;8.644;2023-04-25T01:42:44;98610.84;;;14.99;56.78
40574;BME280;26283;49.020;8.644;2023-04-25T01:45:10;98619.00;;;14.99;56.85
40574;BME280;26283;49.020;8.644;2023-04-25T01:47:36;98617.34;;;14.98;56.84
40574;BME280;26283;49.020;8.644;2023-04-25T01:50:03;98614.91;;;14.97;56.82
40574;BME280;26283;49.020;8.644;2023-04-25T01:52:28;98614.91;;;14.97;56.73
40574;BME280;26283;49.020;8.644;2023-04-25T01:54:53;98625.75;;;14.97;56.71
40574;BME280;26283;49.020;8.644;2023-04-25T01:57:19;98621.16;;;14.97;56.69
40574;BME280;26283;49.020;8.644;2023-04-25T01:59:45;98621.66;;;14.94;56.70
40574;BME280;26283;49.020;8.644;2023-04-25T02:02:11;98619.78;;;14.95;56.67
40574;BME280;26283;49.020;8.644;2023-04-25T02:04:36;98626.03;;;14.95;56.69
40574;BME280;26283;49.020;8.644;2023-04-25T02:07:03;98622.47;;;14.95;56.61
40574;BME280;26283;49.020;8.644;2023-04-25T02:09:28;98625.50;;;14.93;56.64
40574;BME280;26283;49.020;8.644;2023-04-25T02:11:53;98621.16;;;14.92;56.73
40574;BME280;26283;49.020;8.644;2023-04-25T02:14:19;98623.84;;;14.92;56.67
40574;BME280;26283;49.020;8.644;2023-04-25T02:16:45;98617.62;;;14.92;56.67
40574;BME280;26283;49.020;8.644;2023-04-25T02:19:11;98624.13;;;14.91;56.68
40574;BME280;26283;49.020;8.644;2023-04-25T02:21:36;98618.94;;;14.89;56.63
40574;BME280;26283;49.020;8.644;2023-04-25T02:24:03;98612.44;;;14.90;56.55
40574;BME280;26283;49.020;8.644;2023-04-25T02:26:28;98629.81;;;14.89;56.54
40574;BME280;26283;49.020;8.644;2023-04-25T02:28:54;98618.94;;;14.89;56.59
40574;BME280;26283;49.020;8.644;2023-04-25T02:31:19;98622.75;;;14.88;56.54
40574;BME280;26283;49.020;8.644;2023-04-25T02:33:45;98615.69;;;14.87;56.50
40574;BME280;26283;49.020;8.644;2023-04-25T02:36:11;98615.69;;;14.87;56.52
40574;BME280;26283;49.020;8.644;2023-04-25T02:38:36;98618.66;;;14.86;56.46
40574;BME280;26283;49.020;8.644;2023-04-25T02:41:01;98617.00;;;14.85;56.48
40574;BME280;26283;49.020;8.644;2023-04-25T02:43:27;98618.91;;;14.84;56.43
40574;BME280;26283;49.020;8.644;2023-04-25T02:45:52;98623.53;;;14.84;56.48
40574;BME280;26283;49.020;8.644;2023-04-25T02:48:17;98615.38;;;14.84;56.48
40574;BME280;26283;49.020;8.644;2023-04-25T02:50:43;98614.56;;;14.83;56.53
40574;BME280;26283;49.020;8.644;2023-04-25T02:53:08;98607.50;;;14.82;56.65
40574;BME280;26283;49.020;8.644;2023-04-25T02:55:34;98606.69;;;14.82;56.55
40574;BME280;26283;49.020;8.644;2023-04-25T02:57:59;98601.25;;;14.82;56.57
40574;BME280;26283;49.020;8.644;2023-04-25T03:00:25;98602.34;;;14.81;56.55
40574;BME280;26283;49.020;8.644;2023-04-25T03:02:50;98603.41;;;14.80;56.59
40574;BME280;26283;49.020;8.644;2023-04-25T03:05:16;98596.09;;;14.80;56.65
40574;BME280;26283;49.020;8.644;2023-04-25T03:07:42;98591.75;;;14.79;56.66
40574;BME280;26283;49.020;8.644;2023-04-25T03:10:09;98590.94;;;14.79;56.70
40574;BME280;26283;49.020;8.644;2023-04-25T03:12:34;98583.06;;;14.77;56.70
40574;BME280;26283;49.020;8.644;2023-04-25T03:15:00;98585.50;;;14.79;56.67
40574;BME280;26283;49.020;8.644;2023-04-25T03:17:25;98593.91;;;14.77;56.69
40574;BME280;26283;49.020;8.644;2023-04-25T03:19:51;98592.25;;;14.76;56.71
40574;BME280;26283;49.020;8.644;2023-04-25T03:22:16;98590.37;;;14.77;56.74
40574;BME280;26283;49.020;8.644;2023-04-25T03:24:41;98589.00;;;14.74;56.74
40574;BME280;26283;49.020;8.644;2023-04-25T03:27:07;98583.56;;;14.74;56.70
40574;BME280;26283;49.020;8.644;2023-04-25T03:29:32;98589.00;;;14.74;56.67
40574;BME280;26283;49.020;8.644;2023-04-25T03:31:58;98581.94;;;14.73;56.70
40574;BME280;26283;49.020;8.644;2023-04-25T03:34:23;98581.94;;;14.73;56.67
40574;BME280;26283;49.020;8.644;2023-04-25T03:36:49;98590.06;;;14.73;56.61
40574;BME280;26283;49.020;8.644;2023-04-25T03:39:14;98585.75;;;14.72;56.63
40574;BME280;26283;49.020;8.644;2023-04-25T03:41:40;98585.75;;;14.72;56.62
40574;BME280;26283;49.020;8.644;2023-04-25T03:44:05;98583.31;;;14.70;56.58
40574;BME280;26283;49.020;8.644;2023-04-25T03:46:31;98583.31;;;14.70;56.62
40574;BME280;26283;49.020;8.644;2023-04-25T03:48:56;98586.00;;;14.70;56.57
40574;BME280;26283;49.020;8.644;2023-04-25T03:51:21;98580.84;;;14.69;56.53
40574;BME280;26283;49.020;8.644;2023-04-25T03:53:47;98586.28;;;14.69;56.54
40574;BME280;26283;49.020;8.644;2023-04-25T03:56:13;98591.97;;;14.67;56.60
40574;BME280;26283;49.020;8.644;2023-04-25T03:58:38;98591.97;;;14.67;56.50
40574;BME280;26283;49.020;8.644;2023-04-25T04:01:04;98591.13;;;14.67;56.50
40574;BME280;26283;49.020;8.644;2023-04-25T04:03:33;98590.31;;;14.66;56.54
40574;BME280;26283;49.020;8.644;2023-04-25T04:05:59;98592.22;;;14.66;56.53
40574;BME280;26283;49.020;8.644;2023-04-25T04:08:25;98592.22;;;14.66;56.64
40574;BME280;26283;49.020;8.644;2023-04-25T04:10:50;98606.84;;;14.65;56.57
40574;BME280;26283;49.020;8.644;2023-04-25T04:13:15;98597.09;;;14.64;56.54
40574;BME280;26283;49.020;8.644;2023-04-25T04:15:41;98600.88;;;14.63;56.54
40574;BME280;26283;49.020;8.644;2023-04-25T04:18:06;98603.59;;;14.63;56.54
40574;BME280;26283;49.020;8.644;2023-04-25T04:20:31;98605.47;;;14.62;56.50
40574;BME280;26283;49.020;8.644;2023-04-25T04:22:57;98608.44;;;14.61;56.48
40574;BME280;26283;49.020;8.644;2023-04-25T04:25:22;98608.44;;;14.61;56.53
40574;BME280;26283;49.020;8.644;2023-04-25T04:27:49;98609.53;;;14.60;56.51
40574;BME280;26283;49.020;8.644;2023-04-25T04:30:17;98610.34;;;14.60;56.53
40574;BME280;26283;49.020;8.644;2023-04-25T04:32:42;98605.19;;;14.59;56.59
40574;BME280;26283;49.020;8.644;2023-04-25T04:35:08;98607.88;;;14.59;56.57
40574;BME280;26283;49.020;8.644;2023-04-25T04:37:34;98609.78;;;14.58;56.56
40574;BME280;26283;49.020;8.644;2023-04-25T04:39:59;98612.50;;;14.58;56.62
40574;BME280;26283;49.020;8.644;2023-04-25T04:42:30;98618.16;;;14.57;56.69
40574;BME280;26283;49.020;8.644;2023-04-25T04:44:56;98615.47;;;14.57;56.75
40574;BME280;26283;49.020;8.644;2023-04-25T04:47:23;98617.34;;;14.56;56.74
40574;BME280;26283;49.020;8.644;2023-04-25T04:49:49;98613.81;;;14.56;56.81
40574;BME280;26283;49.020;8.644;2023-04-25T04:52:15;98606.75;;;14.55;56.85
40574;BME280;26283;49.020;8.644;2023-04-25T04:54:40;98612.19;;;14.55;56.88
40574;BME280;26283;49.020;8.644;2023-04-25T04:57:05;98608.91;;;14.53;56.83
40574;BME280;26283;49.020;8.644;2023-04-25T04:59:31;98615.16;;;14.53;56.83
40574;BME280;26283;49.020;8.644;2023-04-25T05:01:56;98618.12;;;14.52;56.82
40574;BME280;26283;49.020;8.644;2023-04-25T05:04:21;98620.84;;;14.52;56.83
40574;BME280;26283;49.020;8.644;2023-04-25T05:06:47;98618.12;;;14.52;56.90
40574;BME280;26283;49.020;8.644;2023-04-25T05:09:12;98622.72;;;14.51;56.91
40574;BME280;26283;49.020;8.644;2023-04-25T05:11:37;98626.56;;;14.50;56.93
40574;BME280;26283;49.020;8.644;2023-04-25T05:14:03;98632.75;;;14.51;56.94
40574;BME280;26283;49.020;8.644;2023-04-25T05:16:28;98627.63;;;14.49;56.96
40574;BME280;26283;49.020;8.644;2023-04-25T05:18:54;98629.50;;;14.49;56.95
40574;BME280;26283;49.020;8.644;2023-04-25T05:21:19;98628.69;;;14.48;56.99
40574;BME280;26283;49.020;8.644;2023-04-25T05:23:44;98631.41;;;14.48;57.05
40574;BME280;26283;49.020;8.644;2023-04-25T05:26:10;98627.06;;;14.47;57.06
40574;BME280;26283;49.020;8.644;2023-04-25T05:28:39;98627.31;;;14.46;57.05
40574;BME280;26283;49.020;8.644;2023-04-25T05:31:06;98629.22;;;14.45;57.07
40574;BME280;26283;49.020;8.644;2023-04-25T05:33:31;98626.50;;;14.45;57.10
40574;BME280;26283;49.020;8.644;2023-04-25T05:35:57;98619.44;;;14.44;57.09
40574;BME280;26283;49.020;8.644;2023-04-25T05:38:22;98624.06;;;14.44;57.10
40574;BME280;26283;49.020;8.644;2023-04-25T05:40:47;98622.97;;;14.45;57.06
40574;BME280;26283;49.020;8.644;2023-04-25T05:43:13;98627.56;;;14.44;57.11
40574;BME280;26283;49.020;8.644;2023-04-25T05:45:38;98624.06;;;14.44;57.12
40574;BME280;26283;49.020;8.644;2023-04-25T05:48:03;98627.84;;;14.43;57.11
40574;BME280;26283;49.020;8.644;2023-04-25T05:50:29;98631.63;;;14.42;57.14
40574;BME280;26283;49.020;8.644;2023-04-25T05:52:54;98628.09;;;14.41;57.17
40574;BME280;26283;49.020;8.644;2023-04-25T05:55:20;98627.28;;;14.40;57.19
40574;BME280;26283;49.020;8.644;2023-04-25T05:57:45;98634.56;;;14.40;57.20
40574;BME280;26283;49.020;8.644;2023-04-25T06:00:12;98622.91;;;14.39;57.18
40574;BME280;26283;49.020;8.644;2023-04-25T06:02:38;98632.91;;;14.39;57.23
40574;BME280;26283;49.020;8.644;2023-04-25T06:05:03;98638.34;;;14.39;57.29
40574;BME280;26283;49.020;8.644;2023-04-25T06:07:29;98634.00;;;14.38;57.32
40574;BME280;26283;49.020;8.644;2023-04-25T06:09:55;98635.88;;;14.37;57.32
40574;BME280;26283;49.020;8.644;2023-04-25T06:12:21;98632.34;;;14.37;57.37
40574;BME280;26283;49.020;8.644;2023-04-25T06:14:46;98641.31;;;14.37;57.42
40574;BME280;26283;49.020;8.644;2023-04-25T06:17:11;98651.34;;;14.37;57.39
40574;BME280;26283;49.020;8.644;2023-04-25T06:19:37;98647.81;;;14.36;57.48
40574;BME280;26283;49.020;8.644;2023-04-25T06:22:02;98652.41;;;14.36;57.45
40574;BME280;26283;49.020;8.644;2023-04-25T06:24:28;98652.41;;;14.36;57.39
40574;BME280;26283;49.020;8.644;2023-04-25T06:26:53;98648.88;;;14.35;57.38
40574;BME280;26283;49.020;8.644;2023-04-25T06:29:19;98649.94;;;14.34;57.39
40574;BME280;26283;49.020;8.644;2023-04-25T06:31:44;98651.03;;;14.33;57.38
40574;BME280;26283;49.020;8.644;2023-04-25T06:34:09;98648.31;;;14.33;57.43
40574;BME280;26283;49.020;8.644;2023-04-25T06:36:35;98657.25;;;14.34;57.46
40574;BME280;26283;49.020;8.644;2023-04-25T06:39:00;98655.62;;;14.33;57.40
40574;BME280;26283;49.020;8.644;2023-04-25T06:41:26;98649.38;;;14.32;57.42
40574;BME280;26283;49.020;8.644;2023-04-25T06:43:51;98659.16;;;14.33;57.43
40574;BME280;26283;49.020;8.644;2023-04-25T06:46:16;98656.69;;;14.32;57.46
40574;BME280;26283;49.020;8.644;2023-04-25T06:48:42;98656.69;;;14.32;57.45
40574;BME280;26283;49.020;8.644;2023-04-25T06:51:07;98658.59;;;14.31;57.43
40574;BME280;26283;49.020;8.644;2023-04-25T06:53:32;98665.09;;;14.30;57.39
40574;BME280;26283;49.020;8.644;2023-04-25T06:55:58;98663.19;;;14.31;57.47
40574;BME280;26283;49.020;8.644;2023-04-25T06:58:23;98664.28;;;14.30;57.47
40574;BME280;26283;49.020;8.644;2023-04-25T07:00:48;98662.38;;;14.30;57.45
40574;BME280;26283;49.020;8.644;2023-04-25T07:03:14;98661.56;;;14.30;57.43
40574;BME280;26283;49.020;8.644;2023-04-25T07:05:40;98666.97;;;14.30;57.45
40574;BME280;26283;49.020;8.644;2023-04-25T07:08:05;98662.66;;;14.29;57.49
40574;BME280;26283;49.020;8.644;2023-04-25T07:10:31;98678.91;;;14.29;57.50
40574;BME280;26283;49.020;8.644;2023-04-25T07:12:56;98675.41;;;14.28;57.56
40574;BME280;26283;49.020;8.644;2023-04-25T07:15:21;98676.47;;;14.27;57.62
40574;BME280;26283;49.020;8.644;2023-04-25T07:17:47;98669.97;;;14.28;57.66
40574;BME280;26283;49.020;8.644;2023-04-25T07:20:12;98671.03;;;14.27;57.68
40574;BME280;26283;49.020;8.644;2023-04-25T07:22:37;98662.09;;;14.27;57.69
40574;BME280;26283;49.020;8.644;2023-04-25T07:25:03;98668.34;;;14.27;57.71
40574;BME280;26283;49.020;8.644;2023-04-25T07:27:30;98665.88;;;14.26;57.74
40574;BME280;26283;49.020;8.644;2023-04-25T07:29:55;98667.53;;;14.27;57.70
40574;BME280;26283;49.020;8.644;2023-04-25T07:32:21;98673.19;;;14.25;57.71
40574;BME280;26283;49.020;8.644;2023-04-25T07:34:46;98670.47;;;14.25;57.72
40574;BME280;26283;49.020;8.644;2023-04-25T07:37:11;98674.00;;;14.26;57.70
40574;BME280;26283;49.020;8.644;2023-04-25T07:39:37;98681.31;;;14.25;57.71
40574;BME280;26283;49.020;8.644;2023-04-25T07:42:03;98684.03;;;14.25;57.72
40574;BME280;26283;49.020;8.644;2023-04-25T07:44:29;98683.22;;;14.25;57.78
40574;BME280;26283;49.020;8.644;2023-04-25T07:46:55;98681.31;;;14.25;57.79
40574;BME280;26283;49.020;8.644;2023-04-25T07:49:21;98683.22;;;14.25;57.81
40574;BME280;26283;49.020;8.644;2023-04-25T07:51:46;98692.16;;;14.25;57.82
40574;BME280;26283;49.020;8.644;2023-04-25T07:54:14;98700.28;;;14.25;57.80
40574;BME280;26283;49.020;8.644;2023-04-25T07:56:40;98695.94;;;14.24;57.82
40574;BME280;26283;49.020;8.644;2023-04-25T07:59:05;98692.41;;;14.24;57.88
40574;BME280;26283;49.020;8.644;2023-04-25T08:01:30;98702.19;;;14.25;57.89
40574;BME280;26283;49.020;8.644;2023-04-25T08:03:56;98709.50;;;14.24;57.89
40574;BME280;26283;49.020;8.644;2023-04-25T08:06:21;98713.28;;;14.23;57.92
40574;BME280;26283;49.020;8.644;2023-04-25T08:08:47;98718.69;;;14.23;57.86
40574;BME280;26283;49.020;8.644;2023-04-25T08:11:12;98717.88;;;14.23;57.90
40574;BME280;26283;49.020;8.644;2023-04-25T08:13:37;98720.59;;;14.23;57.91
40574;BME280;26283;49.020;8.644;2023-04-25T08:16:03;98725.19;;;14.22;57.88
40574;BME280;26283;49.020;8.644;2023-04-25T08:18:28;98727.91;;;14.22;57.92
40574;BME280;26283;49.020;8.644;2023-04-25T08:20:53;98730.03;;;14.20;57.97
40574;BME280;26283;49.020;8.644;2023-04-25T08:23:19;98736.03;;;14.22;57.94
40574;BME280;26283;49.020;8.644;2023-04-25T08:25:44;98744.97;;;14.23;57.94
40574;BME280;26283;49.020;8.644;2023-04-25T08:28:10;98763.38;;;14.21;57.97
40574;BME280;26283;49.020;8.644;2023-04-25T08:30:36;98744.16;;;14.22;58.00
40574;BME280;26283;49.020;8.644;2023-04-25T08:33:02;98743.34;;;14.22;58.01
40574;BME280;26283;49.020;8.644;2023-04-25T08:35:28;98757.97;;;14.21;57.95
40574;BME280;26283;49.020;8.644;2023-04-25T08:37:53;98754.19;;;14.22;57.95
40574;BME280;26283;49.020;8.644;2023-04-25T08:40:22;98756.31;;;14.20;57.93
40574;BME280;26283;49.020;8.644;2023-04-25T08:42:53;98762.56;;;14.20;58.02
40574;BME280;26283;49.020;8.644;2023-04-25T08:45:18;98760.91;;;14.19;58.06
40574;BME280;26283;49.020;8.644;2023-04-25T08:47:45;98767.16;;;14.20;58.07
40574;BME280;26283;49.020;8.644;2023-04-25T08:50:14;98769.06;;;14.19;58.13
40574;BME280;26283;49.020;8.644;2023-04-25T08:52:43;98775.53;;;14.18;58.15
40574;BME280;26283;49.020;8.644;2023-04-25T08:55:12;98778.00;;;14.20;58.19
40574;BME280;26283;49.020;8.644;2023-04-25T08:57:38;98777.19;;;14.19;58.18
40574;BME280;26283;49.020;8.644;2023-04-25T09:00:09;98788.03;;;14.19;58.22
40574;BME280;26283;49.020;8.644;2023-04-25T09:02:35;98792.62;;;14.19;58.25
40574;BME280;26283;49.020;8.644;2023-04-25T09:05:02;98794.50;;;14.18;58.30
40574;BME280;26283;49.020;8.644;2023-04-25T09:07:29;98796.41;;;14.18;58.32
40574;BME280;26283;49.020;8.644;2023-04-25T09:09:55;98806.41;;;14.17;58.34
40574;BME280;26283;49.020;8.644;2023-04-25T09:12:21;98811.84;;;14.17;58.40
40574;BME280;26283;49.020;8.644;2023-04-25T09:17:31;98830.81;;;14.17;58.41
40574;BME280;26283;49.020;8.644;2023-04-25T09:20:09;98835.16;;;14.18;58.14
40574;BME280;26283;49.020;8.644;2023-04-25T09:22:35;98844.34;;;14.17;58.19
40574;BME280;26283;49.020;8.644;2023-04-25T09:25:09;98848.97;;;14.17;58.09
40574;BME280;26283;49.020;8.644;2023-04-25T09:27:35;98853.56;;;14.16;58.17
40574;BME280;26283;49.020;8.644;2023-04-25T09:30:01;98854.38;;;14.17;58.19
40574;BME280;26283;49.020;8.644;2023-04-25T09:32:26;98848.13;;;14.16;58.33
40574;BME280;26283;49.020;8.644;2023-04-25T09:34:56;98860.88;;;14.16;58.45
40574;BME280;26283;49.020;8.644;2023-04-25T09:38:25;98868.56;;;14.67;57.65
40574;BME280;26283;49.020;8.644;2023-04-25T09:40:51;98868.56;;;14.67;57.65
40574;BME280;26283;49.020;8.644;2023-04-25T09:45:46;98879.84;;;14.16;58.66
40574;BME280;26283;49.020;8.644;2023-04-25T09:48:17;98879.25;;;14.14;58.72
40574;BME280;26283;49.020;8.644;2023-04-25T09:50:44;98881.72;;;14.15;58.73
40574;BME280;26283;49.020;8.644;2023-04-25T09:53:09;98886.56;;;14.13;58.65
40574;BME280;26283;49.020;8.644;2023-04-25T09:55:35;98883.03;;;14.13;58.62
40574;BME280;26283;49.020;8.644;2023-04-25T09:58:04;98893.63;;;14.14;58.61
40574;BME280;26283;49.020;8.644;2023-04-25T10:00:32;98895.78;;;14.12;58.67
40574;BME280;26283;49.020;8.644;2023-04-25T10:03:00;98895.78;;;14.12;58.59
40574;BME280;26283;49.020;8.644;2023-04-25T10:05:30;98890.34;;;14.12;58.57
40574;BME280;26283;49.020;8.644;2023-04-25T10:07:58;98899.56;;;14.11;58.60
40574;BME280;26283;49.020;8.644;2023-04-25T10:10:24;98904.97;;;14.11;58.59
40574;BME280;26283;49.020;8.644;2023-04-25T10:12:52;98904.16;;;14.11;58.57
40574;BME280;26283;49.020;8.644;2023-04-25T10:15:21;98908.75;;;14.10;58.66
40574;BME280;26283;49.020;8.644;2023-04-25T10:17:48;98918.50;;;14.11;58.80
40574;BME280;26283;49.020;8.644;2023-04-25T10:20:14;98917.94;;;14.09;58.84
40574;BME280;26283;49.020;8.644;2023-04-25T10:22:44;98918.75;;;14.10;58.81
40574;BME280;26283;49.020;8.644;2023-04-25T10:25:11;98922.28;;;14.10;58.78
40574;BME280;26283;49.020;8.644;2023-04-25T10:27:37;98928.78;;;14.09;58.63
40574;BME280;26283;49.020;8.644;2023-04-25T10:30:09;98926.06;;;14.09;58.59
40574;BME280;26283;49.020;8.644;2023-04-25T10:32:36;98932.56;;;14.08;58.62
40574;BME280;26283;49.020;8.644;2023-04-25T10:35:15;98920.13;;;14.07;58.54
40574;BME280;26283;49.020;8.644;2023-04-25T10:38:06;98930.94;;;14.07;58.60
40574;BME280;26283;49.020;8.644;2023-04-25T10:40:34;98926.31;;;14.07;58.65
40574;BME280;26283;49.020;8.644;2023-04-25T10:45:55;98930.12;;;14.06;58.75
40574;BME280;26283;49.020;8.644;2023-04-25T10:48:28;98929.31;;;14.06;58.57
40574;BME280;26283;49.020;8.644;2023-04-25T10:51:10;98940.16;;;14.06;58.69
40574;BME280;26283;49.020;8.644;2023-04-25T10:53:36;98942.28;;;14.04;58.77
40574;BME280;26283;49.020;8.644;2023-04-25T10:56:11;98936.88;;;14.04;58.66
40574;BME280;26283;49.020;8.644;2023-04-25T10:58:42;98945.00;;;14.04;58.70
40574;BME280;26283;49.020;8.644;2023-04-25T11:01:07;98954.19;;;14.03;58.74
40574;BME280;26283;49.020;8.644;2023-04-25T11:03:38;98957.72;;;14.03;58.82
40574;BME280;26283;49.020;8.644;2023-04-25T11:06:04;98955.25;;;14.02;58.85
40574;BME280;26283;49.020;8.644;2023-04-25T11:08:43;98952.53;;;14.02;58.71
40574;BME280;26283;49.020;8.644;2023-04-25T11:11:12;98959.03;;;14.01;58.75
40574;BME280;26283;49.020;8.644;2023-04-25T11:13:38;98969.03;;;14.00;58.73
40574;BME280;26283;49.020;8.644;2023-04-25T11:16:07;98956.31;;;14.01;58.77
40574;BME280;26283;49.020;8.644;2023-04-25T11:18:32;98960.91;;;14.00;58.85
40574;BME280;26283;49.020;8.644;2023-04-25T11:20:59;98956.31;;;14.01;58.90
40574;BME280;26283;49.020;8.644;2023-04-25T11:23:25;98963.87;;;13.99;58.91
40574;BME280;26283;49.020;8.644;2023-04-25T11:25:51;98968.22;;;14.00;58.83
40574;BME280;26283;49.020;8.644;2023-04-25T11:28:21;98964.69;;;13.99;58.79
40574;BME280;26283;49.020;8.644;2023-04-25T11:30:50;98962.81;;;14.00;58.73
40574;BME280;26283;49.020;8.644;2023-04-25T11:33:16;98961.97;;;13.99;58.71
40574;BME280;26283;49.020;8.644;2023-04-25T11:35:42;98965.75;;;13.98;58.61
40574;BME280;26283;49.020;8.644;2023-04-25T11:38:07;98971.19;;;13.98;58.62
40574;BME280;26283;49.020;8.644;2023-04-25T11:40:33;98966.81;;;13.97;58.64
40574;BME280;26283;49.020;8.644;2023-04-25T11:43:02;98968.47;;;13.98;58.63
40574;BME280;26283;49.020;8.644;2023-04-25T11:45:28;98973.88;;;13.98;58.66
40574;BME280;26283;49.020;8.644;2023-04-25T11:47:55;98973.06;;;13.98;58.71
40574;BME280;26283;49.020;8.644;2023-04-25T11:50:21;98970.84;;;13.95;58.72
40574;BME280;26283;49.020;8.644;2023-04-25T11:52:47;98976.84;;;13.97;58.71
40574;BME280;26283;49.020;8.644;2023-04-25T11:55:17;98968.97;;;13.95;58.72
40574;BME280;26283;49.020;8.644;2023-04-25T11:57:45;98981.69;;;13.95;58.73
40574;BME280;26283;49.020;8.644;2023-04-25T12:00:15;98984.38;;;13.95;58.70
40574;BME280;26283;49.020;8.644;2023-04-25T12:02:47;98987.09;;;13.95;58.77
40574;BME280;26283;49.020;8.644;2023-04-25T12:05:14;98988.16;;;13.94;58.79
40574;BME280;26283;49.020;8.644;2023-04-25T12:07:41;98988.16;;;13.94;58.74
40574;BME280;26283;49.020;8.644;2023-04-25T12:10:11;98993.59;;;13.94;58.78
40574;BME280;26283;49.020;8.644;2023-04-25T12:12:37;99002.78;;;13.93;58.86
40574;BME280;26283;49.020;8.644;2023-04-25T12:15:16;99000.06;;;13.93;58.74
40574;BME280;26283;49.020;8.644;2023-04-25T12:17:45;99003.84;;;13.92;58.76
40574;BME280;26283;49.020;8.644;2023-04-25T12:20:41;99003.84;;;13.92;58.55
40574;BME280;26283;49.020;8.644;2023-04-25T12:23:06;98998.44;;;13.92;58.71
40574;BME280;26283;49.020;8.644;2023-04-25T12:25:41;98994.91;;;13.91;58.45
40574;BME280;26283;49.020;8.644;2023-04-25T12:28:21;99003.25;;;13.90;58.57
40574;BME280;26283;49.020;8.644;2023-04-25T12:33:22;98998.91;;;13.89;58.62
40574;BME280;26283;49.020;8.644;2023-04-25T12:35:47;99000.81;;;13.88;58.56
40574;BME280;26283;49.020;8.644;2023-04-25T12:38:35;99001.03;;;13.87;58.57
40574;BME280;26283;49.020;8.644;2023-04-25T12:41:00;99000.22;;;13.86;58.67
40574;BME280;26283;49.020;8.644;2023-04-25T12:43:29;99001.87;;;13.87;58.56
40574;BME280;26283;49.020;8.644;2023-04-25T12:45:55;99007.28;;;13.87;58.61
40574;BME280;26283;49.020;8.644;2023-04-25T12:48:22;98996.44;;;13.87;58.70
40574;BME280;26283;49.020;8.644;2023-04-25T12:50:50;98999.41;;;13.86;58.68
40574;BME280;26283;49.020;8.644;2023-04-25T12:53:17;99007.28;;;13.87;58.76
40574;BME280;26283;49.020;8.644;2023-04-25T12:55:43;99007.53;;;13.86;58.85
40574;BME280;26283;49.020;8.644;2023-04-25T12:58:11;99004.81;;;13.86;58.94
40574;BME280;26283;49.020;8.644;2023-04-25T13:00:36;99010.22;;;13.86;59.05
40574;BME280;26283;49.020;8.644;2023-04-25T13:03:02;99010.22;;;13.86;59.19
40574;BME280;26283;49.020;8.644;2023-04-25T13:05:38;99008.63;;;13.85;59.32
40574;BME280;26283;49.020;8.644;2023-04-25T13:08:03;99008.63;;;13.85;59.51